Toronto Islands, Canada
Current Conditions -  °F | °C
As of 2:00 AM on Sunday 26 Oct 2014 (Local Time) from CYTZ Reporting Station
Clear Clear  
Wind Chill: 43°   Ceiling: Unl
Heat Index: 48°   Visibility: 9mi
Dew Point: 43°   Wind: 14mph
Humidity: 82%   Direction: 240°WSW
Pressure: 29.63"   Gusts: NA
Location:  43.62°N, 79.38°W
Report Text: CYTZ 260600Z AUTO 24012KT 9SM CLR 09/06 A2963 RMK SLP034
Loading
Personal Weather Stations






























Interactive Weather Map
Tropical Storm Tracking
New forecast layout! Learn more

10-Day Weather Forecast

Advertisements
Track Severe Weather on mobile